createdAt,value
2019-05-19T00:00:19.712Z,96040.25
2019-05-19T00:15:26.516Z,96030.81
2019-05-19T00:30:33.678Z,96045.54
2019-05-19T00:45:40.647Z,96043.08
2019-05-19T01:00:47.847Z,96026.30
2019-05-19T01:15:55.318Z,96032.73
2019-05-19T01:31:01.392Z,96031.05
2019-05-19T01:46:08.365Z,96023.34
2019-05-19T02:01:16.284Z,96011.91
2019-05-19T02:16:23.348Z,96020.82
2019-05-19T02:31:32.798Z,96028.69
2019-05-19T02:46:42.786Z,96016.69
2019-05-19T03:02:03.625Z,96024.03
2019-05-19T03:17:10.874Z,96041.92
2019-05-19T03:32:31.647Z,96043.34
2019-05-19T03:47:38.539Z,96042.88
2019-05-19T04:02:45.561Z,96038.50
2019-05-19T04:17:52.397Z,96050.11
2019-05-19T04:33:00.249Z,96041.08
2019-05-19T04:48:09.621Z,96034.74
2019-05-19T05:03:17.258Z,96023.59
2019-05-19T05:18:24.341Z,96010.48
2019-05-19T05:33:30.843Z,96000.56
2019-05-19T05:48:38.436Z,95985.91
2019-05-19T06:03:46.185Z,95985.73
2019-05-19T06:18:53.226Z,95980.81
2019-05-19T06:34:00.348Z,95975.14
2019-05-19T06:49:07.438Z,95951.74
2019-05-19T07:04:14.418Z,95943.67
2019-05-19T07:19:22.070Z,95931.37
2019-05-19T07:34:29.275Z,95916.08
2019-05-19T07:49:38.752Z,95910.71
2019-05-19T08:04:45.808Z,95907.72
2019-05-19T08:19:52.904Z,95901.59
2019-05-19T08:34:59.740Z,95906.50
2019-05-19T08:50:10.308Z,95900.24
2019-05-19T09:05:18.500Z,95884.22
2019-05-19T09:20:26.451Z,95874.92
2019-05-19T09:35:33.686Z,95869.91
2019-05-19T09:50:40.782Z,95875.80
2019-05-19T10:05:48.065Z,95838.16
2019-05-19T10:20:55.176Z,95838.16
2019-05-19T10:36:02.394Z,95821.53
2019-05-19T10:51:09.644Z,95824.20
2019-05-19T11:06:16.612Z,95812.84
2019-05-19T11:21:24.045Z,95833.75
2019-05-19T11:36:31.292Z,95937.94
2019-05-19T11:51:39.450Z,95907.58
2019-05-19T12:06:45.695Z,95862.14
2019-05-19T12:21:54.098Z,95803.27
2019-05-19T12:37:01.199Z,95785.98
2019-05-19T12:52:09.406Z,95788.55
2019-05-19T13:07:16.204Z,95767.52
2019-05-19T13:22:25.150Z,95749.53
2019-05-19T13:37:32.020Z,95761.28
2019-05-19T13:52:38.923Z,95768.06
2019-05-19T14:07:46.648Z,95764.33
2019-05-19T14:22:53.573Z,95771.37
2019-05-19T14:38:01.145Z,95779.55
2019-05-19T14:53:10.789Z,95773.84
2019-05-19T15:08:20.102Z,95782.11
2019-05-19T15:23:26.713Z,95779.52
2019-05-19T15:38:38.316Z,95786.28
2019-05-19T15:53:45.063Z,95780.41
2019-05-19T16:09:17.728Z,95783.86
2019-05-19T16:24:26.287Z,95806.27
2019-05-19T16:39:33.420Z,95800.19
2019-05-19T16:54:51.088Z,95812.75
2019-05-19T17:09:58.427Z,95817.19
2019-05-19T17:25:08.676Z,95829.16
2019-05-19T17:40:16.091Z,95828.16
2019-05-19T17:55:27.156Z,95819.95
2019-05-19T18:10:36.478Z,95809.70
2019-05-19T18:25:45.859Z,95794.06
2019-05-19T18:40:55.304Z,95780.56
2019-05-19T18:56:02.356Z,95790.44
2019-05-19T19:11:09.019Z,95796.55
2019-05-19T19:26:15.924Z,95790.17
2019-05-19T19:41:24.482Z,95774.38
2019-05-19T19:56:31.194Z,95782.35
2019-05-19T20:11:39.023Z,95779.80
2019-05-19T20:26:46.989Z,95784.13
2019-05-19T20:41:54.867Z,95780.34
2019-05-19T20:57:01.461Z,95766.41
2019-05-19T21:12:08.270Z,95768.09
2019-05-19T21:27:15.458Z,95762.45
2019-05-19T21:42:22.363Z,95758.13
2019-05-19T21:57:29.392Z,95780.80
2019-05-19T22:12:36.411Z,95789.44
2019-05-19T22:27:43.540Z,95763.64
2019-05-19T22:42:50.638Z,95739.22
2019-05-19T22:57:57.978Z,95716.73
2019-05-19T23:13:08.308Z,95689.02
2019-05-19T23:28:14.702Z,95689.08
2019-05-19T23:43:21.578Z,95654.95
2019-05-19T23:58:28.440Z,95639.00
